createdAt,value
2018-01-03T00:02:18.900Z,2.20
2018-01-03T00:04:47.253Z,5.60
2018-01-03T00:07:14.834Z,1.07
2018-01-03T00:09:43.154Z,1.37
2018-01-03T00:12:11.475Z,2.57
2018-01-03T00:14:39.803Z,2.17
2018-01-03T00:17:07.391Z,0.90
2018-01-03T00:19:34.967Z,1.00
2018-01-03T00:22:02.526Z,1.10
2018-01-03T00:24:30.098Z,1.47
2018-01-03T00:26:57.675Z,1.90
2018-01-03T00:29:25.224Z,1.00
2018-01-03T00:31:52.805Z,0.90
2018-01-03T00:34:21.157Z,1.00
2018-01-03T00:36:49.653Z,0.90
2018-01-03T00:39:17.982Z,1.30
2018-01-03T00:41:45.564Z,0.97
2018-01-03T00:44:13.135Z,2.10
2018-01-03T00:46:40.698Z,1.00
2018-01-03T00:49:08.292Z,1.00
2018-01-03T00:51:36.624Z,1.17
2018-01-03T00:54:04.188Z,1.17
2018-01-03T00:56:31.783Z,1.17
2018-01-03T00:59:00.105Z,0.97
2018-01-03T01:01:27.677Z,1.20
2018-01-03T01:03:55.222Z,1.37
2018-01-03T01:06:22.801Z,1.33
2018-01-03T01:08:50.368Z,1.00
2018-01-03T01:11:17.949Z,1.43
2018-01-03T01:13:45.487Z,1.77
2018-01-03T01:16:13.402Z,1.80
2018-01-03T01:18:41.748Z,1.27
2018-01-03T01:21:09.318Z,1.20
2018-01-03T01:23:36.931Z,1.10
2018-01-03T01:26:04.524Z,1.60
2018-01-03T01:28:32.772Z,1.77
2018-01-03T01:31:00.350Z,1.50
2018-01-03T01:33:27.925Z,1.40
2018-01-03T01:35:55.956Z,3.03
2018-01-03T01:38:23.530Z,4.87
2018-01-03T01:40:51.086Z,3.33
2018-01-03T01:43:18.685Z,2.83
2018-01-03T01:45:46.227Z,2.03
2018-01-03T01:48:14.049Z,3.63
2018-01-03T01:50:41.611Z,4.23
2018-01-03T01:53:09.178Z,1.10
2018-01-03T01:55:36.882Z,1.00
2018-01-03T01:58:04.438Z,1.10
2018-01-03T02:00:32.000Z,1.97
2018-01-03T02:02:59.578Z,0.90
2018-01-03T02:05:27.157Z,1.10
2018-01-03T02:07:55.465Z,2.80
2018-01-03T02:10:23.131Z,1.13
2018-01-03T02:12:50.685Z,1.07
2018-01-03T02:15:18.244Z,1.10
2018-01-03T02:17:45.801Z,2.40
2018-01-03T02:20:13.369Z,1.10
2018-01-03T02:22:40.922Z,1.23
2018-01-03T02:25:08.502Z,3.93
2018-01-03T02:27:36.076Z,1.10
2018-01-03T02:30:03.648Z,1.10
2018-01-03T02:32:31.213Z,1.00
2018-01-03T02:34:58.766Z,3.50
2018-01-03T02:37:26.426Z,0.80
2018-01-03T02:39:53.997Z,1.63
2018-01-03T02:42:21.584Z,2.67
2018-01-03T02:44:49.929Z,1.50
2018-01-03T02:47:17.496Z,0.70
2018-01-03T02:49:45.053Z,1.10
2018-01-03T02:52:12.798Z,0.70
2018-01-03T02:54:40.354Z,0.90
2018-01-03T02:57:07.935Z,2.30
2018-01-03T02:59:35.504Z,0.67
2018-01-03T03:02:03.044Z,1.70
2018-01-03T03:04:30.613Z,2.27
2018-01-03T03:06:58.171Z,0.67
2018-01-03T03:09:25.745Z,0.60
2018-01-03T03:11:53.304Z,0.60
2018-01-03T03:14:20.884Z,0.60
2018-01-03T03:16:48.449Z,0.60
2018-01-03T03:19:16.056Z,0.50
2018-01-03T03:21:43.736Z,0.73
2018-01-03T03:24:11.533Z,0.70
2018-01-03T03:26:39.121Z,0.60
2018-01-03T03:29:07.446Z,0.93
2018-01-03T03:31:35.291Z,1.23
2018-01-03T03:34:03.569Z,0.50
2018-01-03T03:36:31.133Z,0.67
2018-01-03T03:38:58.730Z,0.70
2018-01-03T03:41:26.301Z,0.43
2018-01-03T03:43:53.860Z,0.60
2018-01-03T03:46:21.434Z,0.70
2018-01-03T03:48:49.760Z,2.03
2018-01-03T03:51:17.326Z,0.70
2018-01-03T03:53:45.626Z,2.23
2018-01-03T03:56:13.926Z,0.70
2018-01-03T03:58:41.485Z,0.90
2018-01-03T04:01:09.877Z,0.70
2018-01-03T04:03:38.849Z,1.10
2018-01-03T04:06:06.404Z,0.70
2018-01-03T04:08:33.997Z,0.60
2018-01-03T04:11:02.334Z,0.60
2018-01-03T04:13:29.900Z,1.87
2018-01-03T04:15:57.486Z,0.63
2018-01-03T04:18:25.864Z,0.67
2018-01-03T04:20:54.187Z,0.60
2018-01-03T04:23:21.754Z,1.13
2018-01-03T04:25:49.710Z,1.03
2018-01-03T04:28:18.096Z,1.10
2018-01-03T04:30:46.712Z,0.70
2018-01-03T04:33:14.276Z,0.60
2018-01-03T04:35:41.844Z,0.60
2018-01-03T04:38:09.395Z,1.23
2018-01-03T04:40:39.101Z,1.30
2018-01-03T04:43:06.660Z,2.50
2018-01-03T04:45:34.221Z,0.77
2018-01-03T04:48:01.782Z,0.60
2018-01-03T04:50:29.370Z,0.70
2018-01-03T04:52:58.201Z,0.60
2018-01-03T04:55:25.773Z,1.67
2018-01-03T04:57:53.358Z,1.40
2018-01-03T05:00:21.063Z,2.07
2018-01-03T05:02:49.377Z,1.27
2018-01-03T05:05:16.954Z,0.70
2018-01-03T05:07:44.536Z,7.20
2018-01-03T05:10:12.218Z,1.00
2018-01-03T05:12:40.529Z,1.53
2018-01-03T05:15:08.148Z,1.20
2018-01-03T05:17:36.496Z,6.73
2018-01-03T05:20:04.053Z,2.47
2018-01-03T05:22:31.632Z,0.90
2018-01-03T05:24:59.979Z,2.03
2018-01-03T05:27:27.580Z,1.13
2018-01-03T05:29:55.198Z,3.67
2018-01-03T05:32:22.785Z,1.20
2018-01-03T05:34:50.346Z,0.93
2018-01-03T05:37:17.932Z,0.80
2018-01-03T05:39:46.244Z,1.10
2018-01-03T05:42:13.839Z,6.83
2018-01-03T05:44:41.401Z,2.20
2018-01-03T05:47:08.970Z,1.50
2018-01-03T05:49:36.554Z,3.47
2018-01-03T05:52:04.133Z,1.10
2018-01-03T05:54:32.465Z,2.00
2018-01-03T05:57:00.023Z,2.27
2018-01-03T05:59:27.618Z,2.77
2018-01-03T06:01:56.034Z,1.20
2018-01-03T06:04:23.589Z,1.87
2018-01-03T06:06:51.152Z,2.80
2018-01-03T06:09:19.590Z,1.93
2018-01-03T06:11:47.172Z,1.80
2018-01-03T06:14:15.522Z,2.80
2018-01-03T06:16:43.097Z,2.97
2018-01-03T06:19:10.664Z,5.43
2018-01-03T06:21:39.061Z,2.00
2018-01-03T06:24:07.386Z,2.93
2018-01-03T06:26:34.989Z,5.03
2018-01-03T06:29:03.341Z,2.17
2018-01-03T06:31:30.901Z,4.73
2018-01-03T06:33:58.462Z,8.10
2018-01-03T06:36:26.080Z,3.50
2018-01-03T06:38:53.645Z,4.63
2018-01-03T06:41:21.237Z,1.93
2018-01-03T06:43:48.831Z,2.20
2018-01-03T06:46:17.165Z,3.73
2018-01-03T06:48:44.737Z,5.87
2018-01-03T06:51:12.307Z,5.43
2018-01-03T06:53:39.878Z,5.53
2018-01-03T06:56:07.672Z,7.27
2018-01-03T06:58:35.353Z,5.33
2018-01-03T07:01:02.926Z,5.93
2018-01-03T07:03:30.500Z,5.30
2018-01-03T07:05:58.073Z,3.13
2018-01-03T07:08:25.652Z,3.87
2018-01-03T07:10:53.217Z,3.50
2018-01-03T07:13:21.559Z,8.70
2018-01-03T07:15:49.180Z,7.30
2018-01-03T07:18:16.772Z,11.30
2018-01-03T07:20:44.338Z,6.17
2018-01-03T07:23:11.906Z,5.30
2018-01-03T07:25:39.494Z,7.83
2018-01-03T07:28:07.048Z,5.27
2018-01-03T07:30:34.642Z,8.87
2018-01-03T07:33:02.979Z,4.73
2018-01-03T07:35:30.577Z,3.50
2018-01-03T07:37:58.909Z,6.67
2018-01-03T07:40:26.501Z,4.10
2018-01-03T07:42:54.061Z,3.87
2018-01-03T07:45:21.617Z,4.90
2018-01-03T07:47:49.187Z,4.10
2018-01-03T07:50:17.542Z,2.60
2018-01-03T07:52:45.114Z,1.30
2018-01-03T07:55:12.749Z,2.60
2018-01-03T07:57:40.324Z,8.03
2018-01-03T08:00:07.897Z,7.43
2018-01-03T08:02:35.445Z,3.40
2018-01-03T08:05:03.025Z,5.30
2018-01-03T08:07:30.637Z,4.00
2018-01-03T08:09:58.212Z,7.20
2018-01-03T08:12:26.539Z,10.60
2018-01-03T08:14:54.093Z,3.37
2018-01-03T08:17:23.366Z,5.40
2018-01-03T08:19:50.917Z,2.70
2018-01-03T08:22:18.489Z,3.53
2018-01-03T08:24:46.049Z,2.70
2018-01-03T08:27:13.608Z,5.80
2018-01-03T08:29:41.168Z,1.53
2018-01-03T08:32:08.721Z,1.97
2018-01-03T08:34:36.307Z,1.40
2018-01-03T08:37:03.865Z,8.87
2018-01-03T08:39:31.469Z,2.00
2018-01-03T08:41:59.166Z,3.07
2018-01-03T08:44:26.802Z,5.20
2018-01-03T08:46:54.353Z,2.70
2018-01-03T08:49:21.917Z,9.60
2018-01-03T08:51:49.497Z,5.63
2018-01-03T08:54:17.066Z,6.53
2018-01-03T08:56:44.634Z,5.10
2018-01-03T08:59:12.211Z,5.13
2018-01-03T09:01:39.782Z,6.03
2018-01-03T09:04:07.357Z,8.83
2018-01-03T09:06:35.747Z,4.87
2018-01-03T09:09:04.105Z,14.53
2018-01-03T09:11:31.676Z,4.23
2018-01-03T09:14:00.007Z,7.60
2018-01-03T09:16:27.625Z,8.60
2018-01-03T09:18:55.962Z,4.90
2018-01-03T09:21:23.525Z,12.00
2018-01-03T09:23:51.093Z,4.77
2018-01-03T09:26:18.672Z,10.13
2018-01-03T09:28:47.073Z,7.20
2018-01-03T09:31:15.409Z,9.97
2018-01-03T09:33:42.998Z,10.90
2018-01-03T09:36:11.309Z,9.60
2018-01-03T09:38:38.912Z,9.67
2018-01-03T09:41:06.469Z,17.20
2018-01-03T09:43:34.021Z,8.00
2018-01-03T09:46:01.744Z,10.87
2018-01-03T09:48:30.039Z,9.27
2018-01-03T09:50:57.613Z,10.03
2018-01-03T09:53:25.933Z,10.80
2018-01-03T09:55:54.313Z,10.23
2018-01-03T09:58:22.645Z,9.20
2018-01-03T10:00:50.235Z,14.60
2018-01-03T10:03:17.783Z,8.03
2018-01-03T10:05:45.369Z,13.27
2018-01-03T10:08:12.926Z,10.13
2018-01-03T10:10:41.101Z,6.93
2018-01-03T10:13:08.666Z,9.67
2018-01-03T10:15:36.221Z,10.27
2018-01-03T10:18:04.616Z,11.97
2018-01-03T10:20:32.937Z,11.43
2018-01-03T10:23:00.505Z,7.50
2018-01-03T10:25:28.105Z,9.07
2018-01-03T10:27:55.669Z,9.90
2018-01-03T10:30:23.354Z,13.00
2018-01-03T10:32:51.834Z,16.07
2018-01-03T10:35:20.145Z,8.60
2018-01-03T10:37:47.754Z,9.60
2018-01-03T10:40:15.413Z,13.53
2018-01-03T10:42:43.017Z,13.43
2018-01-03T10:45:10.855Z,18.70
2018-01-03T10:47:39.182Z,12.30
2018-01-03T10:50:06.737Z,12.80
2018-01-03T10:52:34.398Z,7.00
2018-01-03T10:55:01.956Z,9.27
2018-01-03T10:57:29.534Z,12.83
2018-01-03T10:59:57.142Z,14.37
2018-01-03T11:02:25.468Z,5.50
2018-01-03T11:04:53.057Z,21.27
2018-01-03T11:07:20.600Z,4.10
2018-01-03T11:09:48.199Z,15.47
2018-01-03T11:12:16.536Z,5.80
2018-01-03T11:14:44.101Z,14.50
2018-01-03T11:17:11.662Z,5.80
2018-01-03T11:19:40.126Z,19.53
2018-01-03T11:22:07.717Z,5.43
2018-01-03T11:24:35.291Z,13.87
2018-01-03T11:27:02.869Z,7.23
2018-01-03T11:29:31.211Z,13.40
2018-01-03T11:31:58.792Z,12.10
2018-01-03T11:34:26.340Z,7.03
2018-01-03T11:36:53.897Z,13.00
2018-01-03T11:39:21.461Z,11.80
2018-01-03T11:41:49.042Z,10.63
2018-01-03T11:44:17.369Z,16.33
2018-01-03T11:46:45.492Z,12.23
2018-01-03T11:49:13.861Z,8.40
2018-01-03T11:51:41.461Z,5.37
2018-01-03T11:54:09.033Z,11.73
2018-01-03T11:56:36.629Z,14.37
2018-01-03T11:59:07.525Z,16.10
2018-01-03T12:01:35.097Z,17.00
2018-01-03T12:04:02.699Z,4.10
2018-01-03T12:06:30.260Z,14.87
2018-01-03T12:08:57.854Z,14.63
2018-01-03T12:11:26.181Z,8.23
2018-01-03T12:13:53.789Z,6.30
2018-01-03T12:16:22.111Z,11.40
2018-01-03T12:18:49.687Z,14.03
2018-01-03T12:21:17.253Z,7.20
2018-01-03T12:23:45.591Z,11.07
2018-01-03T12:26:13.161Z,19.83
2018-01-03T12:28:40.734Z,10.60
2018-01-03T12:31:08.310Z,15.83
2018-01-03T12:33:35.860Z,4.10
2018-01-03T12:36:03.420Z,8.23
2018-01-03T12:38:30.985Z,6.27
2018-01-03T12:40:58.581Z,14.30
2018-01-03T12:43:26.893Z,7.90
2018-01-03T12:45:54.508Z,11.00
2018-01-03T12:48:22.058Z,10.73
2018-01-03T12:50:49.643Z,8.63
2018-01-03T12:53:18.060Z,12.97
2018-01-03T12:55:45.620Z,9.30
2018-01-03T12:58:13.205Z,4.10
2018-01-03T13:00:40.801Z,8.90
2018-01-03T13:03:08.399Z,6.33
2018-01-03T13:05:35.966Z,7.00
2018-01-03T13:08:04.093Z,11.33
2018-01-03T13:10:32.422Z,12.50
2018-01-03T13:13:00.038Z,7.30
2018-01-03T13:15:28.351Z,11.23
2018-01-03T13:17:55.925Z,12.50
2018-01-03T13:20:23.470Z,9.23
2018-01-03T13:22:51.042Z,4.87
2018-01-03T13:25:18.605Z,5.57
2018-01-03T13:27:46.179Z,7.03
2018-01-03T13:30:13.748Z,5.50
2018-01-03T13:32:41.325Z,5.73
2018-01-03T13:35:08.877Z,6.37
2018-01-03T13:37:36.894Z,12.60
2018-01-03T13:40:04.461Z,11.93
2018-01-03T13:42:32.038Z,8.10
2018-01-03T13:44:59.629Z,8.20
2018-01-03T13:47:27.282Z,5.67
2018-01-03T13:49:54.860Z,10.10
2018-01-03T13:52:22.409Z,8.17
2018-01-03T13:54:49.978Z,9.83
2018-01-03T13:57:17.580Z,7.70
2018-01-03T13:59:45.915Z,12.97
2018-01-03T14:02:13.481Z,18.03
2018-01-03T14:04:41.056Z,7.00
2018-01-03T14:07:08.617Z,5.93
2018-01-03T14:09:36.217Z,11.77
2018-01-03T14:12:03.787Z,10.10
2018-01-03T14:14:31.348Z,10.37
2018-01-03T14:16:58.930Z,8.37
2018-01-03T14:19:26.481Z,8.80
2018-01-03T14:21:54.080Z,6.40
2018-01-03T14:24:21.641Z,9.83
2018-01-03T14:26:50.030Z,8.50
2018-01-03T14:29:18.372Z,15.50
2018-01-03T14:31:45.937Z,8.00
2018-01-03T14:34:14.389Z,11.33
2018-01-03T14:36:41.981Z,9.63
2018-01-03T14:39:09.569Z,12.50
2018-01-03T14:41:37.115Z,12.37
2018-01-03T14:44:04.684Z,6.80
2018-01-03T14:46:32.240Z,9.17
2018-01-03T14:48:59.824Z,5.97
2018-01-03T14:51:28.157Z,17.63
2018-01-03T14:53:55.741Z,15.00
2018-01-03T14:56:23.325Z,15.40
2018-01-03T14:58:51.680Z,10.87
2018-01-03T15:01:19.266Z,7.33
2018-01-03T15:03:47.630Z,9.57
2018-01-03T15:06:15.180Z,6.63
2018-01-03T15:08:42.740Z,7.23
2018-01-03T15:11:10.417Z,9.20
2018-01-03T15:13:38.756Z,13.27
2018-01-03T15:16:06.321Z,9.17
2018-01-03T15:18:33.903Z,11.00
2018-01-03T15:21:01.505Z,19.00
2018-01-03T15:23:29.094Z,11.83
2018-01-03T15:25:56.701Z,18.80
2018-01-03T15:28:25.033Z,16.43
2018-01-03T15:30:53.406Z,8.10
2018-01-03T15:33:20.961Z,14.27
2018-01-03T15:35:48.519Z,15.87
2018-01-03T15:38:16.148Z,10.93
2018-01-03T15:40:44.514Z,10.67
2018-01-03T15:43:12.108Z,6.67
2018-01-03T15:45:40.404Z,20.10
2018-01-03T15:48:07.998Z,9.70
2018-01-03T15:50:35.615Z,9.50
2018-01-03T15:53:03.253Z,10.63
2018-01-03T15:55:31.589Z,9.70
2018-01-03T15:57:59.179Z,11.67
2018-01-03T16:00:27.535Z,12.13
2018-01-03T16:02:55.145Z,8.73
2018-01-03T16:05:22.705Z,10.13
2018-01-03T16:07:50.338Z,8.73
2018-01-03T16:10:17.897Z,25.90
2018-01-03T16:12:45.446Z,13.02
2018-01-03T16:15:13.084Z,18.13
2018-01-03T16:17:40.692Z,17.27
2018-01-03T16:20:09.136Z,19.53
2018-01-03T16:22:36.701Z,22.93
2018-01-03T16:25:04.285Z,16.00
2018-01-03T16:27:31.881Z,13.60
2018-01-03T16:29:59.497Z,5.37
2018-01-03T16:32:27.068Z,9.50
2018-01-03T16:34:54.843Z,12.73
2018-01-03T16:37:22.397Z,15.70
2018-01-03T16:39:49.996Z,10.27
2018-01-03T16:42:17.581Z,8.40
2018-01-03T16:44:45.154Z,16.67
2018-01-03T16:47:12.758Z,10.50
2018-01-03T16:49:41.172Z,12.23
2018-01-03T16:52:14.464Z,11.80
2018-01-03T16:54:42.045Z,20.93
2018-01-03T16:57:09.627Z,13.30
2018-01-03T16:59:37.185Z,13.47
2018-01-03T17:02:04.784Z,14.63
2018-01-03T17:04:33.128Z,6.47
2018-01-03T17:07:00.730Z,16.10
2018-01-03T17:09:29.075Z,9.33
2018-01-03T17:11:56.648Z,8.50
2018-01-03T17:14:25.006Z,15.00
2018-01-03T17:16:52.672Z,10.97
2018-01-03T17:19:20.262Z,11.90
2018-01-03T17:21:48.614Z,18.50
2018-01-03T17:24:16.223Z,17.60
2018-01-03T17:26:43.790Z,15.70
2018-01-03T17:29:11.364Z,13.53
2018-01-03T17:31:38.956Z,10.13
2018-01-03T17:34:06.532Z,10.00
2018-01-03T17:36:34.913Z,11.43
2018-01-03T17:39:03.274Z,8.97
2018-01-03T17:41:30.904Z,7.37
2018-01-03T17:43:58.460Z,9.87
2018-01-03T17:46:26.841Z,10.43
2018-01-03T17:48:54.423Z,8.93
2018-01-03T17:51:22.064Z,8.53
2018-01-03T17:53:49.649Z,19.03
2018-01-03T17:56:17.270Z,10.93
2018-01-03T17:58:44.849Z,20.60
2018-01-03T18:01:12.423Z,16.03
2018-01-03T18:03:40.010Z,14.43
2018-01-03T18:06:07.677Z,14.70
2018-01-03T18:08:35.241Z,28.73
2018-01-03T18:11:02.876Z,16.50
2018-01-03T18:13:30.465Z,11.70
2018-01-03T18:15:58.041Z,15.97
2018-01-03T18:18:26.408Z,19.90
2018-01-03T18:20:54.722Z,16.30
2018-01-03T18:23:22.350Z,14.77
2018-01-03T18:25:49.919Z,12.30
2018-01-03T18:28:18.283Z,18.43
2018-01-03T18:30:45.902Z,9.87
2018-01-03T18:33:13.508Z,17.23
2018-01-03T18:35:41.098Z,19.83
2018-01-03T18:38:09.412Z,16.50
2018-01-03T18:40:37.022Z,12.80
2018-01-03T18:43:05.386Z,19.83
2018-01-03T18:45:33.087Z,12.67
2018-01-03T18:48:00.665Z,19.53
2018-01-03T18:50:28.309Z,15.00
2018-01-03T18:52:55.865Z,15.63
2018-01-03T18:55:23.448Z,14.50
2018-01-03T18:57:51.103Z,13.23
2018-01-03T19:00:19.461Z,15.63
2018-01-03T19:02:47.800Z,30.03
2018-01-03T19:18:16.168Z,15.77
2018-01-03T19:20:43.750Z,6.97
2018-01-03T19:23:11.414Z,5.97
2018-01-03T19:25:39.001Z,13.50
2018-01-03T19:28:06.680Z,6.90
2018-01-03T19:30:34.269Z,7.57
2018-01-03T19:33:01.883Z,15.67
2018-01-03T19:35:30.383Z,15.63
2018-01-03T19:37:58.123Z,22.90
2018-01-03T19:40:26.464Z,9.90
2018-01-03T19:42:54.044Z,9.43
2018-01-03T19:45:21.595Z,15.60
2018-01-03T19:47:49.192Z,9.20
2018-01-03T19:50:17.387Z,21.13
2018-01-03T19:52:45.094Z,10.70
2018-01-03T19:55:12.700Z,12.30
2018-01-03T19:57:40.491Z,17.73
2018-01-03T20:00:08.819Z,10.67
2018-01-03T20:02:36.832Z,9.60
2018-01-03T20:05:04.858Z,16.00
2018-01-03T20:07:32.887Z,17.13
2018-01-03T20:10:01.291Z,10.17
2018-01-03T20:12:28.869Z,14.33
2018-01-03T20:14:56.983Z,12.30
2018-01-03T20:17:25.382Z,18.73
2018-01-03T20:19:53.007Z,17.53
2018-01-03T20:22:21.814Z,10.40
2018-01-03T20:24:50.044Z,15.33
2018-01-03T20:27:18.320Z,27.50
2018-01-03T20:29:45.902Z,13.23
2018-01-03T20:32:14.269Z,16.53
2018-01-03T20:34:41.985Z,20.07
2018-01-03T20:37:10.843Z,18.43
2018-01-03T20:39:39.809Z,14.10
2018-01-03T20:42:07.479Z,12.37
2018-01-03T20:44:35.624Z,11.23
2018-01-03T20:47:04.106Z,25.40
2018-01-03T20:49:32.504Z,18.57
2018-01-03T20:52:00.097Z,13.13
2018-01-03T20:54:28.418Z,13.03
2018-01-03T20:56:56.072Z,25.13
2018-01-03T20:59:23.636Z,21.37
2018-01-03T21:01:51.588Z,14.20
2018-01-03T21:04:19.665Z,20.93
2018-01-03T21:06:47.301Z,18.23
2018-01-03T21:09:15.649Z,11.70
2018-01-03T21:11:43.837Z,15.53
2018-01-03T21:14:11.517Z,26.23
2018-01-03T21:16:40.202Z,15.43
2018-01-03T21:19:07.789Z,22.60
2018-01-03T21:21:35.592Z,23.50
2018-01-03T21:24:04.889Z,21.43
2018-01-03T21:26:32.814Z,18.43
2018-01-03T21:29:00.829Z,26.27
2018-01-03T21:31:28.727Z,16.37
2018-01-03T21:33:56.476Z,25.53
2018-01-03T21:36:24.164Z,17.63
2018-01-03T21:38:52.581Z,17.37
2018-01-03T21:41:20.237Z,37.13
2018-01-03T21:43:47.839Z,27.90
2018-01-03T21:46:15.461Z,25.30
2018-01-03T21:48:43.048Z,20.77
2018-01-03T21:51:10.667Z,25.23
2018-01-03T21:53:38.241Z,27.90
2018-01-03T21:56:05.931Z,19.43
2018-01-03T21:58:33.545Z,17.60
2018-01-03T22:01:01.872Z,27.60
2018-01-03T22:03:29.478Z,28.67
2018-01-03T22:05:57.832Z,28.83
2018-01-03T22:08:25.985Z,19.80
2018-01-03T22:10:53.629Z,26.80
2018-01-03T22:13:21.197Z,19.87
2018-01-03T22:15:48.817Z,22.37
2018-01-03T22:18:17.175Z,17.17
2018-01-03T22:20:44.753Z,20.03
2018-01-03T22:23:13.113Z,22.13
2018-01-03T22:25:40.683Z,15.97
2018-01-03T22:28:08.458Z,21.03
2018-01-03T22:30:36.792Z,18.40
2018-01-03T22:33:04.374Z,18.63
2018-01-03T22:35:31.957Z,18.70
2018-01-03T22:38:00.394Z,14.47
2018-01-03T22:40:27.977Z,21.80
2018-01-03T22:42:55.555Z,14.33
2018-01-03T22:45:23.134Z,28.40
2018-01-03T22:47:51.596Z,17.80
2018-01-03T22:50:19.161Z,16.77
2018-01-03T22:52:47.499Z,16.47
2018-01-03T22:55:15.061Z,19.60
2018-01-03T22:57:42.637Z,27.73
2018-01-03T23:00:10.224Z,23.53
2018-01-03T23:02:38.565Z,25.67
2018-01-03T23:05:06.150Z,12.87
2018-01-03T23:07:33.720Z,28.67
2018-01-03T23:10:01.325Z,15.97
2018-01-03T23:12:28.977Z,41.17
2018-01-03T23:14:56.534Z,21.63
2018-01-03T23:17:24.113Z,16.97
2018-01-03T23:19:51.677Z,29.43
2018-01-03T23:22:19.233Z,25.10
2018-01-03T23:24:46.817Z,24.33
2018-01-03T23:27:14.390Z,24.47
2018-01-03T23:29:41.950Z,34.03
2018-01-03T23:34:44.314Z,19.43
2018-01-03T23:37:11.889Z,26.27
2018-01-03T23:39:39.482Z,29.13
2018-01-03T23:42:07.070Z,35.40
2018-01-03T23:44:34.634Z,32.77
2018-01-03T23:47:02.243Z,17.90
2018-01-03T23:49:29.792Z,13.70
2018-01-03T23:51:59.014Z,14.43
2018-01-03T23:54:26.564Z,23.70
2018-01-03T23:56:54.171Z,11.07
2018-01-03T23:59:22.497Z,17.40
